Time;durP1;ratioP1;P1;durP2;ratioP2;P2;SDS_P1;SDS_P2;PMS_P1;PMS_P2;Temp;Humidity;BMP_temperature;BMP_pressure;BME280_temperature;BME280_humidity;BME280_pressure;Samples;Min_cycle;Max_cycle;Signal;HPM_P1;HPM_P2
2023/11/07 00:02:24;;;;;;;0.30;0.20;;;;;;;11.66;93.71;99700.38;5053657;28;20941;-48
2023/11/07 00:04:51;;;;;;;0.30;0.20;;;;;;;11.74;94.03;99696.44;5044316;28;20460;-48
2023/11/07 00:07:18;;;;;;;0.30;0.20;;;;;;;11.76;93.67;99702.56;5033942;28;20528;-48
2023/11/07 00:09:45;;;;;;;0.30;0.20;;;;;;;11.73;94.16;99699.19;5041787;28;20541;-48
2023/11/07 00:12:11;;;;;;;0.30;0.20;;;;;;;11.66;93.83;99697.72;5040005;28;20464;-48
2023/11/07 00:14:38;;;;;;;0.30;0.20;;;;;;;11.80;93.61;99695.38;5053875;28;20457;-48
2023/11/07 00:17:05;;;;;;;0.30;0.20;;;;;;;11.81;93.95;99699.75;5053368;28;20451;-48
2023/11/07 00:19:32;;;;;;;0.30;0.20;;;;;;;11.81;93.36;99703.28;5053512;28;20477;-48
2023/11/07 00:21:58;;;;;;;0.30;0.20;;;;;;;11.87;93.82;99704.81;5053169;28;20446;-48
2023/11/07 00:24:28;;;;;;;0.30;0.20;;;;;;;11.82;93.35;99702.34;5053222;28;20447;-48
2023/11/07 00:26:54;;;;;;;0.30;0.20;;;;;;;11.89;93.02;99705.59;5053036;28;20802;-48
2023/11/07 00:29:22;;;;;;;0.30;0.20;;;;;;;11.95;93.21;99708.03;5044506;28;20464;-48
2023/11/07 00:31:52;;;;;;;0.30;0.20;;;;;;;11.92;92.98;99709.94;5047903;28;20513;-48
2023/11/07 00:34:19;;;;;;;0.30;0.20;;;;;;;11.84;93.05;99713.81;5046624;28;20480;-48
2023/11/07 00:36:49;;;;;;;0.30;0.20;;;;;;;11.83;93.03;99712.06;5044265;28;20463;-49
2023/11/07 00:39:16;;;;;;;0.30;0.20;;;;;;;11.73;93.87;99713.34;5052853;28;20574;-48
2023/11/07 00:41:43;;;;;;;0.30;0.20;;;;;;;11.72;93.76;99713.44;5052704;28;20443;-48
2023/11/07 00:44:10;;;;;;;0.30;0.20;;;;;;;11.67;94.20;99721.63;5052834;28;20462;-48
2023/11/07 00:46:37;;;;;;;0.30;0.20;;;;;;;11.70;93.84;99723.28;5052422;28;20784;-48
2023/11/07 00:49:05;;;;;;;0.30;0.20;;;;;;;11.69;94.03;99724.22;5052779;28;20494;-48
2023/11/07 00:51:32;;;;;;;0.30;0.20;;;;;;;11.74;93.74;99720.41;5052489;28;20493;-49
2023/11/07 00:53:59;;;;;;;0.30;0.20;;;;;;;11.69;93.15;99729.53;5052566;28;20851;-48
2023/11/07 00:56:25;;;;;;;0.30;0.20;;;;;;;11.58;93.91;99727.31;5052562;28;20446;-48
2023/11/07 00:58:52;;;;;;;0.30;0.20;;;;;;;11.67;93.64;99726.06;5051703;28;20804;-48
2023/11/07 01:01:19;;;;;;;0.30;0.20;;;;;;;11.60;93.87;99727.25;5052213;28;20489;-48
2023/11/07 01:03:46;;;;;;;0.30;0.20;;;;;;;11.66;92.46;99722.56;5050656;28;20454;-48
2023/11/07 01:06:13;;;;;;;0.30;0.20;;;;;;;11.73;92.95;99724.00;5033457;28;20456;-48
2023/11/07 01:08:39;;;;;;;0.30;0.20;;;;;;;11.66;93.55;99729.66;5043997;28;20471;-48
2023/11/07 01:11:06;;;;;;;0.30;0.20;;;;;;;11.75;92.64;99738.13;5052191;28;20570;-48
2023/11/07 01:13:32;;;;;;;0.30;0.20;;;;;;;11.62;92.42;99731.56;5052521;28;20451;-48
2023/11/07 01:15:59;;;;;;;0.30;0.20;;;;;;;11.61;92.54;99742.28;5052117;28;21256;-48
2023/11/07 01:18:25;;;;;;;0.30;0.20;;;;;;;11.61;92.26;99745.81;5052186;28;20473;-48
2023/11/07 01:20:52;;;;;;;0.30;0.20;;;;;;;11.61;92.07;99732.50;5051527;28;20455;-48
2023/11/07 01:23:19;;;;;;;0.30;0.20;;;;;;;11.48;92.07;99744.59;5044203;28;20450;-48
2023/11/07 01:25:45;;;;;;;0.30;0.20;;;;;;;11.54;92.34;99739.91;5038589;28;20489;-48
2023/11/07 01:28:12;;;;;;;0.30;0.20;;;;;;;11.52;92.32;99731.13;5051805;28;20471;-48
2023/11/07 01:30:38;;;;;;;0.30;0.20;;;;;;;11.63;92.04;99740.41;5038411;28;20450;-48
2023/11/07 01:33:05;;;;;;;0.30;0.20;;;;;;;11.56;92.47;99726.53;5052032;28;20522;-48
2023/11/07 01:35:31;;;;;;;0.30;0.20;;;;;;;11.46;93.32;99730.47;5041294;28;20882;-48
2023/11/07 01:37:58;;;;;;;0.30;0.20;;;;;;;11.51;92.70;99742.69;5047289;28;20575;-48
2023/11/07 01:40:25;;;;;;;0.30;0.20;;;;;;;11.44;92.86;99730.56;5051551;28;20914;-48
2023/11/07 01:42:51;;;;;;;0.30;0.20;;;;;;;11.55;92.22;99727.44;5051906;28;20475;-48
2023/11/07 01:45:18;;;;;;;0.30;0.20;;;;;;;11.50;93.04;99722.28;5051946;28;20538;-48
2023/11/07 01:47:44;;;;;;;0.30;0.20;;;;;;;11.44;91.97;99729.69;5051764;28;20461;-48
2023/11/07 01:50:12;;;;;;;0.30;0.20;;;;;;;11.49;92.91;99733.00;5051726;28;20447;-48
2023/11/07 01:52:40;;;;;;;0.30;0.20;;;;;;;11.47;92.99;99726.88;5051543;28;21156;-51
2023/11/07 01:55:08;;;;;;;0.30;0.20;;;;;;;11.44;92.30;99727.03;5051490;28;20455;-48
2023/11/07 01:57:35;;;;;;;0.30;0.20;;;;;;;11.35;92.85;99732.72;5051560;28;20988;-48
2023/11/07 02:00:08;;;;;;;0.30;0.20;;;;;;;11.36;92.45;99729.13;5051735;28;20495;-48
2023/11/07 02:02:37;;;;;;;0.30;0.20;;;;;;;11.44;92.01;99719.91;5051608;28;20480;-48
2023/11/07 02:05:11;;;;;;;0.30;0.20;;;;;;;11.36;92.54;99737.09;5039977;28;20462;-48
2023/11/07 02:07:38;;;;;;;0.30;0.20;;;;;;;11.48;92.97;99736.59;5034500;28;20819;-48
2023/11/07 02:10:10;;;;;;;0.30;0.20;;;;;;;11.27;92.82;99731.25;5054586;28;20454;-48
2023/11/07 02:12:37;;;;;;;0.30;0.20;;;;;;;11.20;93.44;99728.88;5055746;28;20490;-48
2023/11/07 02:15:35;;;;;;;0.30;0.20;;;;;;;11.27;93.30;99735.69;5055500;28;20461;-47
2023/11/07 02:18:01;;;;;;;0.30;0.20;;;;;;;11.32;92.72;99732.84;5020604;28;20482;-48
2023/11/07 02:20:30;;;;;;;0.30;0.20;;;;;;;11.26;93.55;99733.97;5055272;28;20939;-47
2023/11/07 02:23:08;;;;;;;0.30;0.20;;;;;;;11.21;93.98;99733.28;5055917;28;20423;-48
2023/11/07 02:25:34;;;;;;;0.30;0.20;;;;;;;11.37;93.61;99738.84;5055319;28;20540;-48
2023/11/07 02:28:01;;;;;;;0.30;0.20;;;;;;;11.28;94.02;99737.44;5054209;28;20471;-49
2023/11/07 02:30:27;;;;;;;0.30;0.20;;;;;;;11.27;93.68;99727.72;5041699;28;20542;-48
2023/11/07 02:32:56;;;;;;;0.30;0.20;;;;;;;11.23;93.41;99734.06;5055131;28;20490;-49
2023/11/07 02:35:23;;;;;;;0.50;0.47;;;;;;;11.16;93.76;99737.91;5044934;28;20451;-48
2023/11/07 02:37:50;;;;;;;0.30;0.20;;;;;;;11.34;94.14;99733.63;5050933;28;20512;-48
2023/11/07 02:40:16;;;;;;;0.30;0.20;;;;;;;11.26;94.18;99726.00;5054803;28;20934;-49
2023/11/07 02:42:43;;;;;;;0.30;0.20;;;;;;;11.28;93.97;99727.66;5055048;28;20471;-49
2023/11/07 02:45:09;;;;;;;0.30;0.20;;;;;;;11.26;93.58;99731.31;5054750;28;20461;-48
2023/11/07 02:47:36;;;;;;;0.30;0.20;;;;;;;11.30;93.72;99722.25;5054806;28;20892;-48
2023/11/07 02:50:10;;;;;;;0.30;0.20;;;;;;;11.26;93.26;99721.53;5055125;28;20935;-47
2023/11/07 02:52:37;;;;;;;0.30;0.20;;;;;;;11.15;93.91;99721.09;5055070;28;20494;-48
2023/11/07 02:55:04;;;;;;;0.30;0.20;;;;;;;11.23;93.98;99729.59;5028554;28;20456;-47
2023/11/07 02:57:30;;;;;;;0.30;0.20;;;;;;;11.22;94.71;99730.53;5054641;28;20447;-48
2023/11/07 02:59:57;;;;;;;0.30;0.20;;;;;;;11.27;94.47;99733.91;5054628;28;20478;-48
2023/11/07 03:02:24;;;;;;;0.30;0.20;;;;;;;11.24;94.20;99733.16;5054644;28;21018;-48
2023/11/07 03:04:54;;;;;;;0.30;0.20;;;;;;;11.26;94.02;99731.31;5045140;28;20542;-48
2023/11/07 03:07:21;;;;;;;0.30;0.20;;;;;;;11.21;94.50;99733.28;5035856;28;20443;-48
2023/11/07 03:09:48;;;;;;;0.30;0.20;;;;;;;11.16;94.52;99722.81;5054486;28;20835;-48
2023/11/07 03:12:14;;;;;;;0.30;0.20;;;;;;;11.22;94.90;99721.69;5054212;28;20544;-48
2023/11/07 03:14:42;;;;;;;0.30;0.20;;;;;;;11.33;94.89;99721.28;5054575;28;20446;-48
2023/11/07 03:17:09;;;;;;;0.30;0.20;;;;;;;11.33;93.46;99721.28;5054301;28;20455;-48
2023/11/07 03:19:35;;;;;;;0.30;0.20;;;;;;;11.17;94.16;99723.69;5054384;28;21113;-48
2023/11/07 03:22:02;;;;;;;0.30;0.20;;;;;;;11.10;94.48;99720.41;5053544;28;20450;-48
2023/11/07 03:24:28;;;;;;;0.30;0.20;;;;;;;11.05;94.80;99719.72;5054137;28;20455;-48
2023/11/07 03:26:55;;;;;;;0.30;0.20;;;;;;;11.12;94.76;99723.03;5054058;28;20538;-48
2023/11/07 03:29:22;;;;;;;0.30;0.20;;;;;;;11.03;94.87;99726.03;5045557;28;20492;-48
2023/11/07 03:31:49;;;;;;;0.30;0.20;;;;;;;11.07;94.48;99731.16;5049377;28;20490;-48
2023/11/07 03:34:16;;;;;;;0.30;0.20;;;;;;;11.03;94.70;99728.69;5048478;28;20513;-48
2023/11/07 03:36:43;;;;;;;0.30;0.20;;;;;;;11.08;94.71;99735.56;5044849;28;20460;-48
2023/11/07 03:39:10;;;;;;;0.30;0.20;;;;;;;11.09;94.68;99725.78;5053920;28;20463;-48
2023/11/07 03:41:44;;;;;;;0.30;0.20;;;;;;;11.16;94.29;99716.63;5053669;28;20515;-48
2023/11/07 03:44:12;;;;;;;0.30;0.20;;;;;;;11.17;93.99;99711.25;5054054;28;20442;-48
2023/11/07 03:46:38;;;;;;;0.30;0.20;;;;;;;11.13;94.83;99716.78;5053792;28;20451;-48
2023/11/07 03:49:05;;;;;;;0.30;0.20;;;;;;;11.17;94.61;99721.03;5053925;28;20470;-48
2023/11/07 03:51:31;;;;;;;0.30;0.20;;;;;;;11.19;94.67;99724.50;5053726;28;20447;-48
2023/11/07 03:53:58;;;;;;;0.30;0.20;;;;;;;11.11;94.52;99731.94;5053572;28;20486;-48
2023/11/07 03:56:24;;;;;;;0.30;0.20;;;;;;;11.02;95.27;99737.59;5053814;28;20457;-48
2023/11/07 03:58:51;;;;;;;0.30;0.20;;;;;;;11.13;94.82;99735.38;5053652;28;20528;-48
2023/11/07 04:01:17;;;;;;;0.30;0.20;;;;;;;11.21;94.62;99735.94;5053582;28;20491;-48
2023/11/07 04:03:44;;;;;;;0.30;0.20;;;;;;;11.17;94.76;99739.66;5051851;28;20541;-48
2023/11/07 04:06:11;;;;;;;0.30;0.20;;;;;;;11.28;95.02;99742.75;5034520;28;20452;-48
2023/11/07 04:08:38;;;;;;;0.30;0.20;;;;;;;11.36;93.95;99742.41;5044897;28;20462;-48
2023/11/07 04:11:05;;;;;;;0.30;0.20;;;;;;;11.34;94.38;99746.94;5053408;28;20534;-47
2023/11/07 04:13:31;;;;;;;0.30;0.20;;;;;;;11.36;94.93;99753.94;5053316;28;20490;-48
2023/11/07 04:15:58;;;;;;;0.30;0.20;;;;;;;11.35;94.81;99756.66;5053245;28;20477;-48
2023/11/07 04:18:24;;;;;;;0.30;0.20;;;;;;;11.34;95.00;99755.78;5053153;28;20481;-48
2023/11/07 04:20:51;;;;;;;0.30;0.20;;;;;;;11.38;94.53;99743.25;5053130;28;20454;-48
2023/11/07 04:23:18;;;;;;;0.30;0.20;;;;;;;11.38;94.71;99749.44;5052991;28;20454;-48
2023/11/07 04:25:46;;;;;;;0.30;0.20;;;;;;;11.39;94.25;99753.84;5052912;28;20446;-48
2023/11/07 04:28:12;;;;;;;0.30;0.20;;;;;;;11.48;93.99;99747.25;5053141;28;20477;-48
2023/11/07 04:30:39;;;;;;;0.30;0.20;;;;;;;11.42;94.08;99748.38;5039461;28;20959;-47
2023/11/07 04:33:06;;;;;;;0.30;0.20;;;;;;;11.46;93.68;99749.97;5052113;28;20573;-48
2023/11/07 04:35:33;;;;;;;0.30;0.20;;;;;;;11.49;93.75;99748.97;5042359;28;20451;-48
2023/11/07 04:37:59;;;;;;;0.30;0.20;;;;;;;11.48;93.68;99753.44;5048630;28;20898;-48
2023/11/07 04:40:26;;;;;;;0.30;0.20;;;;;;;11.58;93.62;99748.63;5052820;28;20451;-48
2023/11/07 04:42:52;;;;;;;0.30;0.20;;;;;;;11.48;94.03;99742.78;5052642;28;20478;-48
2023/11/07 04:45:21;;;;;;;0.30;0.20;;;;;;;11.46;94.34;99731.34;5052757;28;20457;-48
2023/11/07 04:47:48;;;;;;;0.30;0.20;;;;;;;11.50;93.78;99729.41;5052462;28;20459;-48
2023/11/07 04:50:17;;;;;;;0.30;0.20;;;;;;;11.57;93.28;99729.13;5052548;28;20923;-48
2023/11/07 04:52:43;;;;;;;0.30;0.20;;;;;;;11.62;93.36;99726.25;5052761;28;20494;-47
2023/11/07 04:55:11;;;;;;;0.30;0.20;;;;;;;11.44;93.77;99721.69;5052841;28;20497;-48
2023/11/07 04:57:38;;;;;;;0.30;0.20;;;;;;;11.46;93.82;99722.50;5052440;28;20481;-48
2023/11/07 05:00:08;;;;;;;0.30;0.20;;;;;;;11.77;93.97;99730.06;5052368;28;20935;-48
2023/11/07 05:02:34;;;;;;;0.30;0.20;;;;;;;11.62;93.42;99738.69;5052125;28;20451;-48
2023/11/07 05:05:01;;;;;;;0.30;0.20;;;;;;;11.67;93.28;99729.59;5041409;28;20455;-48
2023/11/07 05:07:27;;;;;;;0.30;0.20;;;;;;;11.66;93.24;99732.34;5034488;28;20452;-48
2023/11/07 05:09:57;;;;;;;0.30;0.20;;;;;;;11.50;93.74;99730.28;5052268;28;20570;-48
2023/11/07 05:12:24;;;;;;;0.30;0.20;;;;;;;11.47;94.17;99733.06;5049280;28;20574;-48
2023/11/07 05:14:51;;;;;;;0.30;0.20;;;;;;;11.50;93.70;99727.63;5041836;28;20557;-49
2023/11/07 05:17:18;;;;;;;0.30;0.20;;;;;;;11.61;93.43;99721.84;5051864;28;20919;-49
2023/11/07 05:19:44;;;;;;;0.30;0.20;;;;;;;11.45;93.72;99726.09;5052373;28;20527;-49
2023/11/07 05:22:11;;;;;;;0.30;0.20;;;;;;;11.39;93.50;99723.69;5051823;28;20453;-49
2023/11/07 05:24:37;;;;;;;0.30;0.20;;;;;;;11.43;94.02;99725.28;5051833;28;20450;-49
2023/11/07 05:27:04;;;;;;;0.30;0.20;;;;;;;11.39;94.18;99727.22;5051756;28;20450;-49
2023/11/07 05:29:30;;;;;;;0.30;0.20;;;;;;;11.37;94.30;99729.06;5042238;28;20514;-49
2023/11/07 05:31:58;;;;;;;0.30;0.20;;;;;;;11.42;94.05;99731.53;5047991;28;20951;-49
2023/11/07 05:34:28;;;;;;;0.30;0.20;;;;;;;11.44;93.73;99730.56;5045123;28;20824;-49
2023/11/07 05:36:55;;;;;;;0.30;0.20;;;;;;;11.39;94.24;99729.88;5045037;28;20895;-49
2023/11/07 05:39:27;;;;;;;0.30;0.20;;;;;;;11.34;94.64;99717.69;5051824;28;20841;-49
2023/11/07 05:41:54;;;;;;;0.30;0.20;;;;;;;11.40;94.41;99723.63;5051764;28;20453;-49
2023/11/07 05:44:21;;;;;;;0.30;0.20;;;;;;;11.42;94.39;99723.56;5051392;28;20453;-49
2023/11/07 05:46:49;;;;;;;0.30;0.20;;;;;;;11.38;95.18;99722.84;5051496;28;20442;-49
2023/11/07 05:49:16;;;;;;;0.30;0.20;;;;;;;11.59;94.69;99723.72;5051813;28;20466;-49
2023/11/07 05:51:43;;;;;;;0.30;0.20;;;;;;;11.46;94.31;99723.38;5051461;28;20823;-49
2023/11/07 05:54:09;;;;;;;0.30;0.20;;;;;;;11.41;94.57;99724.50;5051582;28;20495;-49
2023/11/07 05:56:36;;;;;;;0.30;0.20;;;;;;;11.35;94.80;99730.91;5051474;28;20969;-49
2023/11/07 05:59:03;;;;;;;0.30;0.20;;;;;;;11.40;94.30;99731.63;5051305;28;20473;-49
2023/11/07 06:01:30;;;;;;;0.30;0.20;;;;;;;11.37;94.83;99729.06;5050239;28;20596;-49
2023/11/07 06:03:56;;;;;;;0.30;0.20;;;;;;;11.37;94.58;99731.72;5048496;28;20538;-49
2023/11/07 06:06:24;;;;;;;0.30;0.20;;;;;;;11.41;94.84;99728.03;5032002;28;20837;-49
2023/11/07 06:08:52;;;;;;;0.30;0.20;;;;;;;11.44;94.75;99732.34;5044104;28;20973;-49
2023/11/07 06:11:19;;;;;;;0.30;0.20;;;;;;;11.42;94.38;99729.75;5051148;28;20451;-49
2023/11/07 06:13:45;;;;;;;0.30;0.20;;;;;;;11.34;94.53;99737.16;5051255;28;20600;-49
2023/11/07 06:16:11;;;;;;;0.30;0.20;;;;;;;11.42;94.26;99735.06;5025415;28;20472;-49
2023/11/07 06:18:39;;;;;;;0.30;0.20;;;;;;;11.39;94.61;99734.34;5051338;28;20565;-49
2023/11/07 06:21:05;;;;;;;0.30;0.20;;;;;;;11.38;95.02;99735.28;5038454;28;20458;-49
2023/11/07 06:23:32;;;;;;;0.30;0.20;;;;;;;11.28;94.83;99740.97;5051203;28;20421;-49
2023/11/07 06:25:59;;;;;;;0.30;0.20;;;;;;;11.39;94.30;99742.31;5051051;28;20453;-49
2023/11/07 06:28:28;;;;;;;0.30;0.20;;;;;;;11.23;94.95;99739.38;5050403;28;20458;-49
2023/11/07 06:30:55;;;;;;;0.30;0.20;;;;;;;11.27;94.95;99743.69;5039088;28;20457;-49
2023/11/07 06:33:21;;;;;;;0.30;0.20;;;;;;;11.23;94.39;99756.22;5051185;28;20490;-49
2023/11/07 06:35:49;;;;;;;0.30;0.20;;;;;;;11.35;94.55;99748.69;5040324;28;20512;-49
2023/11/07 06:38:17;;;;;;;0.30;0.20;;;;;;;11.32;94.48;99749.66;5046031;28;20506;-49
2023/11/07 06:40:43;;;;;;;0.30;0.20;;;;;;;11.24;95.46;99746.47;5050747;28;21181;-49
2023/11/07 06:43:10;;;;;;;0.30;0.20;;;;;;;11.23;95.60;99760.66;5051230;28;20453;-49
2023/11/07 06:45:37;;;;;;;0.30;0.20;;;;;;;11.24;95.37;99757.97;5051304;28;20465;-49
2023/11/07 06:48:04;;;;;;;0.30;0.20;;;;;;;11.21;95.34;99757.22;5050830;28;20991;-49
2023/11/07 06:50:30;;;;;;;0.30;0.20;;;;;;;11.16;95.95;99757.41;5051065;28;20544;-49
2023/11/07 06:52:57;;;;;;;0.30;0.20;;;;;;;11.14;95.83;99766.38;5050965;28;20491;-49
2023/11/07 06:55:24;;;;;;;0.30;0.20;;;;;;;11.23;95.73;99766.84;5051199;28;20451;-49
2023/11/07 06:57:53;;;;;;;0.30;0.20;;;;;;;11.27;95.47;99772.94;5054459;28;20453;-49
2023/11/07 07:00:24;;;;;;;0.30;0.20;;;;;;;11.35;95.66;99776.16;5054818;28;20435;-49
2023/11/07 07:02:55;;;;;;;0.30;0.20;;;;;;;11.26;95.34;99769.41;5054497;28;20445;-49
2023/11/07 07:05:22;;;;;;;0.30;0.20;;;;;;;11.23;95.74;99776.63;5040371;28;20826;-49
2023/11/07 07:07:49;;;;;;;0.30;0.20;;;;;;;11.34;95.64;99779.75;5039054;28;20457;-49
2023/11/07 07:10:16;;;;;;;0.30;0.20;;;;;;;11.36;95.58;99777.88;5054782;28;20820;-49
2023/11/07 07:12:43;;;;;;;0.30;0.20;;;;;;;11.53;94.40;99771.91;5054401;28;20490;-49
2023/11/07 07:15:10;;;;;;;0.30;0.20;;;;;;;11.54;94.26;99778.97;5054499;28;20485;-49
2023/11/07 07:17:37;;;;;;;0.30;0.20;;;;;;;11.66;94.18;99782.91;5054241;28;21017;-49
2023/11/07 07:20:11;;;;;;;0.30;0.20;;;;;;;11.60;95.54;99785.81;5054310;28;20458;-49
2023/11/07 07:22:41;;;;;;;0.30;0.20;;;;;;;11.41;94.76;99789.22;5054422;28;20438;-49
2023/11/07 07:25:15;;;;;;;0.30;0.20;;;;;;;11.51;95.46;99793.25;5054224;28;20482;-49
2023/11/07 07:27:46;;;;;;;0.30;0.20;;;;;;;11.57;94.74;99792.13;5054166;28;20446;-49
2023/11/07 07:30:20;;;;;;;0.30;0.20;;;;;;;11.67;94.34;99793.50;5040968;28;20880;-49
2023/11/07 07:32:49;;;;;;;0.30;0.20;;;;;;;11.66;94.33;99790.91;5054265;28;20485;-49
2023/11/07 07:35:16;;;;;;;0.30;0.20;;;;;;;11.49;94.79;99797.75;5043580;28;20932;-49
2023/11/07 07:37:43;;;;;;;0.30;0.20;;;;;;;11.60;94.56;99793.78;5049601;28;20536;-49
2023/11/07 07:40:10;;;;;;;0.30;0.20;;;;;;;11.58;94.21;99792.06;5054013;28;21004;-49
2023/11/07 07:42:36;;;;;;;0.30;0.20;;;;;;;11.83;94.27;99793.75;5053771;28;20483;-49
2023/11/07 07:45:03;;;;;;;0.30;0.20;;;;;;;11.72;94.38;99791.50;5053763;28;20530;-49
2023/11/07 07:47:30;;;;;;;0.30;0.20;;;;;;;11.84;94.16;99790.16;5053862;28;20443;-50
2023/11/07 07:49:56;;;;;;;0.30;0.20;;;;;;;11.69;94.52;99793.44;5053761;28;20528;-49
2023/11/07 07:52:23;;;;;;;0.30;0.20;;;;;;;11.83;94.42;99807.06;5053817;28;20447;-49
2023/11/07 07:54:49;;;;;;;0.30;0.20;;;;;;;11.90;94.52;99802.34;5053538;28;20569;-49
2023/11/07 07:57:37;;;;;;;0.30;0.20;;;;;;;11.79;94.57;99808.13;5053625;28;20473;-49
2023/11/07 08:00:11;;;;;;;0.30;0.20;;;;;;;11.74;95.13;99808.28;5053495;28;20490;-49
2023/11/07 08:02:44;;;;;;;0.30;0.20;;;;;;;11.91;94.47;99801.41;5053460;28;20563;-50
2023/11/07 08:05:14;;;;;;;0.60;0.60;;;;;;;12.04;94.20;99811.47;5041573;28;20448;-49
2023/11/07 08:07:40;;;;;;;0.30;0.20;;;;;;;12.09;94.48;99817.50;5037148;28;20421;-49
2023/11/07 08:10:10;;;;;;;0.30;0.20;;;;;;;11.99;94.20;99813.50;5053339;28;20446;-49
2023/11/07 08:12:36;;;;;;;0.30;0.20;;;;;;;11.93;94.55;99815.56;5053353;28;20453;-49
2023/11/07 08:15:07;;;;;;;0.30;0.20;;;;;;;12.04;94.53;99818.63;5053476;28;20428;-49
2023/11/07 08:17:35;;;;;;;0.30;0.20;;;;;;;11.81;94.96;99814.25;5053469;28;20482;-49
2023/11/07 08:20:04;;;;;;;0.30;0.20;;;;;;;11.75;94.99;99812.66;5053053;28;20470;-49
2023/11/07 08:22:30;;;;;;;0.30;0.20;;;;;;;11.79;95.47;99806.34;5053002;28;20573;-49
2023/11/07 08:24:58;;;;;;;0.30;0.20;;;;;;;11.86;95.03;99802.47;5052975;28;20452;-49
2023/11/07 08:27:25;;;;;;;0.30;0.20;;;;;;;11.94;94.76;99802.19;5053271;28;20542;-49
2023/11/07 08:29:53;;;;;;;0.30;0.20;;;;;;;11.99;95.25;99800.16;5040285;28;20476;-49
2023/11/07 08:32:19;;;;;;;0.30;0.20;;;;;;;12.01;94.93;99800.09;5052781;28;20447;-49
2023/11/07 08:34:46;;;;;;;0.30;0.20;;;;;;;12.08;94.81;99802.47;5052799;28;20496;-49
2023/11/07 08:37:12;;;;;;;0.30;0.20;;;;;;;12.05;94.56;99807.88;5048408;28;20463;-49
2023/11/07 08:39:40;;;;;;;0.30;0.20;;;;;;;12.10;94.89;99819.25;5052745;28;20453;-49
2023/11/07 08:42:07;;;;;;;0.30;0.20;;;;;;;12.24;94.19;99823.97;5053069;28;20455;-49
2023/11/07 08:44:34;;;;;;;0.30;0.20;;;;;;;12.18;94.26;99818.03;5052670;28;20450;-49
2023/11/07 08:47:01;;;;;;;0.30;0.20;;;;;;;12.26;93.99;99823.91;5052642;28;20486;-50
2023/11/07 08:49:27;;;;;;;0.30;0.20;;;;;;;12.12;94.72;99835.16;5052688;28;20498;-49
2023/11/07 08:51:57;;;;;;;0.30;0.20;;;;;;;12.15;94.59;99827.88;5052666;28;20967;-49
2023/11/07 08:54:24;;;;;;;0.30;0.20;;;;;;;12.06;94.19;99832.72;5052852;28;20533;-49
2023/11/07 08:56:50;;;;;;;0.30;0.20;;;;;;;12.17;93.48;99841.13;5052680;28;20505;-49
2023/11/07 08:59:17;;;;;;;0.30;0.20;;;;;;;12.20;93.90;99833.03;5052281;28;20549;-49
2023/11/07 09:01:47;;;;;;;0.30;0.20;;;;;;;12.21;94.56;99840.09;5052655;28;20852;-49
2023/11/07 09:04:14;;;;;;;0.30;0.20;;;;;;;12.34;93.75;99846.66;5047856;28;20547;-49
2023/11/07 09:06:41;;;;;;;0.30;0.20;;;;;;;12.27;93.75;99845.16;5032487;28;20444;-49
2023/11/07 09:09:14;;;;;;;0.30;0.20;;;;;;;12.35;93.78;99852.84;5048032;28;20473;-49
2023/11/07 09:11:43;;;;;;;0.30;0.20;;;;;;;12.36;93.74;99849.25;5052357;28;20450;-49
2023/11/07 09:14:10;;;;;;;0.30;0.20;;;;;;;12.51;93.13;99850.38;5052011;28;20522;-49
2023/11/07 09:16:36;;;;;;;0.30;0.20;;;;;;;12.56;93.03;99851.88;5052243;28;20546;-48
2023/11/07 09:19:04;;;;;;;0.30;0.20;;;;;;;12.50;92.66;99845.97;5051269;28;20498;-48
2023/11/07 09:21:32;;;;;;;0.30;0.20;;;;;;;12.56;93.00;99849.22;5052301;28;20535;-48
2023/11/07 09:23:58;;;;;;;0.30;0.20;;;;;;;12.60;93.33;99853.47;5051915;28;20449;-48
2023/11/07 09:26:25;;;;;;;0.30;0.20;;;;;;;12.63;92.58;99852.50;5051562;28;20869;-48
2023/11/07 09:28:51;;;;;;;0.30;0.20;;;;;;;12.69;92.24;99842.41;5047040;28;20526;-48
2023/11/07 09:31:18;;;;;;;0.30;0.20;;;;;;;12.59;92.85;99846.41;5043169;28;20451;-48
2023/11/07 09:33:45;;;;;;;0.30;0.20;;;;;;;12.72;92.63;99854.75;5050352;28;20486;-48
2023/11/07 09:36:14;;;;;;;0.30;0.20;;;;;;;12.41;92.93;99856.09;5040946;28;20540;-48
2023/11/07 09:38:42;;;;;;;0.30;0.20;;;;;;;12.61;92.99;99859.69;5050019;28;20452;-48
2023/11/07 09:41:18;;;;;;;0.30;0.20;;;;;;;12.90;91.57;99863.75;5051899;28;20453;-48
2023/11/07 09:43:45;;;;;;;0.30;0.20;;;;;;;13.00;91.98;99860.56;5025650;28;20516;-48
2023/11/07 09:46:13;;;;;;;0.30;0.20;;;;;;;12.97;91.32;99862.53;5051663;28;20450;-48
2023/11/07 09:48:41;;;;;;;0.30;0.20;;;;;;;12.93;90.98;99859.13;5051774;28;20594;-48
2023/11/07 09:51:10;;;;;;;0.30;0.20;;;;;;;12.92;91.13;99859.22;5051568;28;20475;-48
2023/11/07 09:53:39;;;;;;;0.30;0.20;;;;;;;12.91;91.46;99854.81;5051619;28;20499;-48
2023/11/07 09:56:06;;;;;;;0.30;0.20;;;;;;;12.96;91.25;99866.13;5051707;28;20443;-48
2023/11/07 09:58:41;;;;;;;0.30;0.20;;;;;;;13.00;90.83;99857.03;5051281;28;20485;-48
2023/11/07 10:01:09;;;;;;;0.30;0.20;;;;;;;12.83;90.74;99863.13;5051736;28;20534;-48
2023/11/07 10:03:39;;;;;;;0.30;0.20;;;;;;;13.01;90.79;99864.09;5051588;28;20457;-48
2023/11/07 10:06:06;;;;;;;0.30;0.20;;;;;;;12.90;90.83;99853.09;5032142;28;20451;-48
2023/11/07 10:08:33;;;;;;;0.30;0.20;;;;;;;13.03;90.56;99860.47;5041516;28;20470;-48
2023/11/07 10:11:09;;;;;;;0.30;0.20;;;;;;;13.10;90.68;99854.81;5051303;28;20553;-49
2023/11/07 10:13:36;;;;;;;0.30;0.20;;;;;;;13.13;90.75;99860.00;5051626;28;20541;-48
2023/11/07 10:16:07;;;;;;;0.30;0.20;;;;;;;13.23;90.02;99856.88;5051234;28;20909;-49
2023/11/07 10:18:48;;;;;;;0.30;0.20;;;;;;;13.15;90.53;99860.81;5051388;28;20900;-48
2023/11/07 10:21:34;;;;;;;0.30;0.20;;;;;;;13.00;91.28;99855.22;5051664;28;20450;-48
2023/11/07 10:24:01;;;;;;;0.30;0.20;;;;;;;13.19;90.87;99852.63;5051286;28;20445;-48
2023/11/07 10:26:28;;;;;;;0.30;0.20;;;;;;;13.34;90.45;99862.59;5051504;28;20453;-48
2023/11/07 10:29:25;;;;;;;0.30;0.20;;;;;;;13.37;91.08;99860.72;5046496;28;20954;-48
2023/11/07 10:32:02;;;;;;;0.30;0.20;;;;;;;13.22;90.49;99852.50;5049987;28;20872;-48
2023/11/07 10:34:30;;;;;;;0.30;0.20;;;;;;;13.13;91.90;99868.88;5047867;28;20522;-48
2023/11/07 10:37:00;;;;;;;0.30;0.20;;;;;;;13.20;91.22;99854.38;5048198;28;20425;-48
2023/11/07 10:39:27;;;;;;;0.30;0.20;;;;;;;13.12;92.16;99858.28;5039956;28;20897;-48
2023/11/07 10:41:58;;;;;;;0.30;0.20;;;;;;;13.12;92.13;99858.28;5037042;28;20415;-48
2023/11/07 10:44:29;;;;;;;0.30;0.20;;;;;;;13.09;92.96;99861.09;5036580;28;20444;-48
2023/11/07 10:47:00;;;;;;;0.30;0.20;;;;;;;12.94;91.47;99858.19;5054239;28;20439;-48
2023/11/07 10:49:30;;;;;;;0.30;0.20;;;;;;;13.12;91.81;99863.63;5051265;28;20992;-48
2023/11/07 10:52:00;;;;;;;0.30;0.20;;;;;;;13.12;90.78;99864.50;5034880;28;20490;-48
2023/11/07 10:54:30;;;;;;;0.30;0.20;;;;;;;13.35;90.49;99855.47;5040883;28;20574;-48
2023/11/07 10:57:03;;;;;;;0.30;0.20;;;;;;;13.38;90.94;99857.97;5055010;28;20445;-48
2023/11/07 10:59:31;;;;;;;0.30;0.20;;;;;;;13.34;90.09;99851.94;5054693;28;20470;-48
2023/11/07 11:02:04;;;;;;;0.30;0.20;;;;;;;13.46;90.31;99853.16;5044267;28;20499;-48
2023/11/07 11:04:34;;;;;;;0.30;0.20;;;;;;;13.40;88.75;99849.88;5042515;28;20459;-48
2023/11/07 11:07:03;;;;;;;0.30;0.20;;;;;;;13.21;89.61;99850.75;5034831;28;20509;-48
2023/11/07 11:09:32;;;;;;;0.30;0.20;;;;;;;13.24;91.01;99849.75;5052682;28;20449;-48
2023/11/07 11:12:02;;;;;;;0.30;0.20;;;;;;;13.30;90.18;99858.34;5054827;28;20462;-48
2023/11/07 11:14:29;;;;;;;0.30;0.20;;;;;;;13.66;90.19;99852.19;5054255;28;20518;-47
2023/11/07 11:17:41;;;;;;;0.30;0.20;;;;;;;13.70;89.07;99852.91;5054475;28;20557;-48
2023/11/07 11:20:22;;;;;;;0.30;0.20;;;;;;;13.66;88.33;99856.66;5039831;28;20446;-47
2023/11/07 11:23:30;;;;;;;0.30;0.20;;;;;;;13.83;87.93;99848.69;5030122;28;20461;-47
2023/11/07 11:26:13;;;;;;;0.30;0.20;;;;;;;14.24;86.30;99850.16;5027794;28;20446;-48
2023/11/07 11:28:41;;;;;;;0.30;0.20;;;;;;;14.04;85.84;99853.00;5051534;28;20470;-48
2023/11/07 11:31:14;;;;;;;0.30;0.20;;;;;;;14.30;85.47;99859.69;5043830;28;20478;-48
2023/11/07 11:33:43;;;;;;;0.30;0.20;;;;;;;14.33;84.78;99862.22;5034599;28;20866;-48
2023/11/07 11:36:37;;;;;;;0.30;0.20;;;;;;;14.05;84.29;99856.53;5033132;28;20933;-48
2023/11/07 11:39:26;;;;;;;0.30;0.20;;;;;;;13.99;84.88;99859.50;5036398;28;20460;-48
2023/11/07 11:41:56;;;;;;;0.30;0.20;;;;;;;13.88;84.79;99854.69;5036914;28;20447;-47